Time;durP1;ratioP1;P1;durP2;ratioP2;P2;SDS_P1;SDS_P2;PMS_P1;PMS_P2;Temp;Humidity;BMP_temperature;BMP_pressure;BME280_temperature;BME280_humidity;BME280_pressure;Samples;Min_cycle;Max_cycle;Signal;HPM_P1;HPM_P2
2021/07/30 00:02:13;;;;;;;2.00;1.60;;;;;;;15.22;66.66;100376.28;5022876;28;20171;-87
2021/07/30 00:04:44;;;;;;;4.82;1.80;;;;;;;15.19;66.96;100375.53;5042821;28;20052;-87
2021/07/30 00:07:13;;;;;;;4.10;1.75;;;;;;;15.13;67.20;100376.56;5044203;28;20048;-86
2021/07/30 00:09:40;;;;;;;4.22;1.63;;;;;;;15.09;67.05;100382.84;5023910;28;20044;-86
2021/07/30 00:12:07;;;;;;;5.05;1.60;;;;;;;15.07;67.80;100379.44;5055537;28;20076;-87
2021/07/30 00:14:34;;;;;;;4.45;2.00;;;;;;;15.05;67.80;100378.59;5026956;28;20529;-83
2021/07/30 00:17:04;;;;;;;7.25;2.05;;;;;;;15.04;68.35;100385.66;5038225;28;20044;-83
2021/07/30 00:19:49;;;;;;;7.70;2.03;;;;;;;14.99;68.43;100379.66;5032805;28;20099;-81
2021/07/30 00:22:15;;;;;;;2.55;1.55;;;;;;;14.96;68.22;100382.38;5054150;28;20048;-86
2021/07/30 00:24:43;;;;;;;3.80;1.70;;;;;;;14.91;68.33;100388.72;5033518;28;20199;-84
2021/07/30 00:27:10;;;;;;;3.33;2.00;;;;;;;14.86;68.19;100384.47;5052290;28;20032;-85
2021/07/30 00:29:38;;;;;;;2.22;1.90;;;;;;;14.84;68.53;100380.16;5046559;28;20052;-84
2021/07/30 00:32:10;;;;;;;2.63;1.67;;;;;;;14.79;68.86;100387.34;5064773;28;20048;-86
2021/07/30 00:34:45;;;;;;;5.82;3.30;;;;;;;14.77;69.13;100383.88;5046303;28;20051;-85
2021/07/30 00:37:12;;;;;;;3.53;1.60;;;;;;;14.74;69.06;100382.19;5037950;28;20763;-82
2021/07/30 00:39:39;;;;;;;4.25;1.95;;;;;;;14.73;69.00;100377.81;5047338;28;20037;-86
2021/07/30 00:42:08;;;;;;;6.95;2.90;;;;;;;14.70;69.05;100377.94;5034234;28;20052;-85
2021/07/30 00:44:38;;;;;;;2.92;2.25;;;;;;;14.69;69.32;100381.47;5025941;28;20090;-87
2021/07/30 00:47:13;;;;;;;6.18;2.28;;;;;;;14.68;69.39;100379.75;5044118;28;20131;-85
2021/07/30 00:49:41;;;;;;;5.85;1.98;;;;;;;14.64;69.35;100375.47;5044868;28;20037;-87
2021/07/30 00:52:08;;;;;;;5.18;2.00;;;;;;;14.61;69.53;100378.19;5043631;28;20151;-88
2021/07/30 00:54:38;;;;;;;5.63;2.10;;;;;;;14.58;69.94;100381.75;5038616;28;20355;-86
2021/07/30 00:57:06;;;;;;;3.90;1.92;;;;;;;14.55;69.72;100382.72;5028319;28;20036;-86
2021/07/30 00:59:33;;;;;;;5.45;2.22;;;;;;;14.53;69.71;100376.63;5042592;28;20871;-83
2021/07/30 01:02:00;;;;;;;3.60;1.98;;;;;;;14.51;69.87;100382.84;5049455;28;20495;-85
2021/07/30 01:04:27;;;;;;;2.40;1.42;;;;;;;14.48;69.92;100375.91;5022393;28;20059;-85
2021/07/30 01:06:56;;;;;;;5.07;2.15;;;;;;;14.45;70.34;100370.72;5036946;28;20164;-82
2021/07/30 01:09:23;;;;;;;5.00;1.33;;;;;;;14.46;70.05;100375.09;5024706;28;20079;-85
2021/07/30 01:11:50;;;;;;;5.82;2.42;;;;;;;14.44;70.40;100376.06;5051487;28;20052;-84
2021/07/30 01:14:17;;;;;;;3.42;1.63;;;;;;;14.37;70.24;100375.38;5021196;28;21353;-85
2021/07/30 01:16:44;;;;;;;2.70;1.55;;;;;;;14.30;70.82;100368.53;5037486;28;20147;-85
2021/07/30 01:19:25;;;;;;;2.97;1.98;;;;;;;14.25;71.23;100373.06;5025864;28;20041;-83
2021/07/30 01:21:54;;;;;;;3.45;1.73;;;;;;;14.21;71.42;100369.69;5036078;28;20063;-86
2021/07/30 01:24:24;;;;;;;3.63;1.88;;;;;;;14.17;71.41;100371.53;5024795;28;20110;-84
2021/07/30 01:26:54;;;;;;;4.53;2.30;;;;;;;14.11;71.40;100368.22;5019880;28;20052;-84
2021/07/30 01:29:24;;;;;;;2.50;2.28;;;;;;;14.08;72.15;100371.81;5053120;28;20048;-82
2021/07/30 01:31:51;;;;;;;4.85;1.55;;;;;;;14.05;72.25;100367.50;5053677;28;20052;-83
2021/07/30 01:34:18;;;;;;;5.63;2.10;;;;;;;14.01;72.57;100375.50;5021994;28;20087;-85
2021/07/30 01:36:44;;;;;;;7.68;2.20;;;;;;;13.97;72.77;100371.22;5037831;28;20097;-85
2021/07/30 01:39:11;;;;;;;2.72;2.28;;;;;;;13.96;73.13;100369.50;5021645;28;20171;-86
2021/07/30 01:41:39;;;;;;;4.50;1.92;;;;;;;13.97;72.80;100368.59;5022961;28;20052;-86
2021/07/30 01:44:06;;;;;;;4.75;2.00;;;;;;;13.97;72.91;100376.50;5051650;28;20041;-86
2021/07/30 01:46:32;;;;;;;4.38;2.20;;;;;;;13.98;73.08;100378.22;5040779;28;20049;-84
2021/07/30 01:49:02;;;;;;;6.40;1.92;;;;;;;13.99;73.02;100372.06;5021343;28;20103;-87
2021/07/30 01:51:28;;;;;;;3.15;2.58;;;;;;;14.00;73.12;100373.75;5024586;28;20058;-84
2021/07/30 01:53:55;;;;;;;4.15;2.20;;;;;;;13.99;73.17;100375.53;5035871;28;20055;-84
2021/07/30 01:56:22;;;;;;;6.32;2.50;;;;;;;13.96;73.34;100372.13;5040456;28;20051;-85
2021/07/30 01:58:48;;;;;;;4.90;2.40;;;;;;;13.93;73.45;100375.72;5053055;28;20052;-82
2021/07/30 02:01:15;;;;;;;5.28;2.45;;;;;;;13.91;73.58;100374.91;5021466;28;20044;-86
2021/07/30 02:03:41;;;;;;;4.03;2.08;;;;;;;13.87;73.96;100367.97;5021774;28;20051;-86
2021/07/30 02:06:10;;;;;;;3.03;2.13;;;;;;;13.84;74.24;100365.44;5021538;28;20077;-87
2021/07/30 02:08:37;;;;;;;3.40;2.75;;;;;;;13.80;74.64;100367.28;5037171;28;20091;-84
2021/07/30 02:11:11;;;;;;;3.33;2.75;;;;;;;13.79;74.43;100369.97;5054634;28;20049;-83
2021/07/30 02:16:26;;;;;;;5.68;2.58;;;;;;;13.77;74.88;100358.63;5038844;28;20095;-85
2021/07/30 02:18:52;;;;;;;7.43;2.67;;;;;;;13.77;75.08;100359.47;5041732;28;20300;-86
2021/07/30 02:21:20;;;;;;;2.95;2.33;;;;;;;13.79;74.97;100354.16;5039953;28;20128;-85
2021/07/30 02:23:47;;;;;;;5.20;1.92;;;;;;;13.80;74.91;100350.66;5041006;28;20085;-84
2021/07/30 02:26:14;;;;;;;3.35;2.13;;;;;;;13.79;74.94;100352.41;5057614;28;20048;-86
2021/07/30 02:28:41;;;;;;;3.65;2.30;;;;;;;13.78;75.26;100352.44;5045554;28;20102;-84
2021/07/30 02:31:08;;;;;;;3.97;2.55;;;;;;;13.79;75.16;100354.16;5022930;28;20118;-83
2021/07/30 02:33:34;;;;;;;5.95;2.65;;;;;;;13.78;75.11;100357.69;5044204;28;20130;-86
2021/07/30 02:36:04;;;;;;;5.07;2.78;;;;;;;13.80;75.61;100358.53;5040986;28;20048;-84
2021/07/30 02:38:33;;;;;;;3.70;2.33;;;;;;;13.80;75.45;100359.38;5028075;28;20053;-84
2021/07/30 02:41:00;;;;;;;4.85;2.92;;;;;;;13.79;75.26;100359.44;5038007;28;20131;-84
2021/07/30 02:43:27;;;;;;;7.97;3.33;;;;;;;13.76;75.88;100359.53;5059574;28;20076;-84
2021/07/30 02:45:53;;;;;;;6.20;2.88;;;;;;;13.76;75.52;100360.38;5038282;28;20045;-85
2021/07/30 02:48:20;;;;;;;5.75;2.60;;;;;;;13.76;75.63;100365.63;5043435;28;20040;-86
2021/07/30 02:50:49;;;;;;;5.40;2.78;;;;;;;13.73;76.00;100368.38;5053262;28;20052;-84
2021/07/30 02:53:16;;;;;;;3.92;2.85;;;;;;;13.70;76.06;100364.03;5039700;28;20056;-84
2021/07/30 02:55:42;;;;;;;5.05;3.00;;;;;;;13.68;76.50;100368.47;5023065;28;20056;-82
2021/07/30 02:58:11;;;;;;;4.72;2.53;;;;;;;13.68;76.42;100367.63;5026753;28;20557;-87
2021/07/30 03:00:38;;;;;;;7.28;2.65;;;;;;;13.66;76.48;100364.16;5034934;28;20054;-86
2021/07/30 03:03:05;;;;;;;5.47;2.58;;;;;;;13.63;76.65;100366.88;5027145;28;20056;-84
2021/07/30 03:05:32;;;;;;;6.20;2.65;;;;;;;13.59;76.93;100362.59;5050654;28;23035;-83
2021/07/30 03:07:59;;;;;;;6.07;3.17;;;;;;;13.56;77.40;100363.56;5028182;28;20134;-86
2021/07/30 03:10:25;;;;;;;5.22;3.08;;;;;;;13.53;77.22;100360.97;5041761;28;20048;-85
2021/07/30 03:12:54;;;;;;;5.55;2.88;;;;;;;13.52;77.88;100360.13;5053577;28;20064;-83
2021/07/30 03:15:21;;;;;;;4.30;2.70;;;;;;;13.52;78.04;100362.75;5038416;28;20047;-86
2021/07/30 03:17:48;;;;;;;4.43;3.40;;;;;;;13.50;77.84;100355.81;5038551;28;20388;-84
2021/07/30 03:20:15;;;;;;;10.05;2.88;;;;;;;13.50;78.39;100367.19;5042344;28;20060;-87
2021/07/30 03:22:41;;;;;;;5.63;2.85;;;;;;;13.50;77.97;100361.06;5021987;28;20528;-87
2021/07/30 03:25:08;;;;;;;7.68;3.85;;;;;;;13.47;78.16;100362.00;5042898;28;20060;-85
2021/07/30 03:27:35;;;;;;;4.35;2.47;;;;;;;13.42;78.35;100353.38;5038161;28;20036;-86
2021/07/30 03:30:01;;;;;;;2.67;2.47;;;;;;;13.42;78.75;100349.91;5038425;28;20053;-83
2021/07/30 03:32:28;;;;;;;6.65;2.85;;;;;;;13.42;79.09;100352.53;5036074;28;20109;-85
2021/07/30 03:34:54;;;;;;;4.28;2.92;;;;;;;13.36;79.11;100357.03;5040686;28;20570;-85
2021/07/30 03:37:21;;;;;;;4.60;2.92;;;;;;;13.36;79.03;100358.75;5037284;28;20051;-84
2021/07/30 03:39:48;;;;;;;7.00;3.40;;;;;;;13.31;79.76;100351.00;5025513;28;20046;-85
2021/07/30 03:42:14;;;;;;;5.28;2.95;;;;;;;13.29;79.94;100352.78;5021568;28;20045;-86
2021/07/30 03:44:41;;;;;;;8.18;3.70;;;;;;;13.29;79.99;100352.78;5059301;28;20048;-84
2021/07/30 03:47:07;;;;;;;7.65;3.80;;;;;;;13.28;79.78;100350.19;5053712;28;20076;-85
2021/07/30 03:49:34;;;;;;;5.47;3.60;;;;;;;13.26;80.07;100354.63;5041833;28;20385;-83
2021/07/30 03:52:03;;;;;;;5.40;2.65;;;;;;;13.23;80.08;100345.94;5037439;28;20041;-85
2021/07/30 03:54:30;;;;;;;7.18;3.58;;;;;;;13.27;80.53;100345.84;5023663;28;20053;-85
2021/07/30 03:56:56;;;;;;;5.90;3.08;;;;;;;13.29;80.31;100344.91;5055932;28;20053;-82
2021/07/30 03:59:23;;;;;;;3.55;3.25;;;;;;;13.31;80.24;100345.75;5026332;28;20068;-84
2021/07/30 04:01:50;;;;;;;7.20;2.60;;;;;;;13.32;80.10;100349.22;5019387;28;20877;-85
2021/07/30 04:04:17;;;;;;;5.43;3.25;;;;;;;13.29;80.02;100347.53;5039272;28;20044;-84
2021/07/30 04:06:45;;;;;;;5.03;3.03;;;;;;;13.28;80.05;100343.16;5054535;28;20129;-86
2021/07/30 04:09:15;;;;;;;5.00;2.72;;;;;;;13.33;80.41;100349.19;5043106;28;20052;-85
2021/07/30 04:11:42;;;;;;;7.63;3.50;;;;;;;13.35;79.96;100343.88;5039224;28;20166;-84
2021/07/30 04:14:11;;;;;;;3.60;2.63;;;;;;;13.38;80.37;100342.06;5038582;28;20052;-86
2021/07/30 04:16:39;;;;;;;4.70;3.08;;;;;;;13.42;79.78;100334.97;5040082;28;20431;-84
2021/07/30 04:19:07;;;;;;;6.25;3.08;;;;;;;13.47;79.77;100345.38;5053046;28;20049;-83
2021/07/30 04:21:34;;;;;;;5.13;3.30;;;;;;;13.49;79.90;100348.81;5055472;28;20053;-85
2021/07/30 04:24:01;;;;;;;7.25;2.92;;;;;;;13.53;79.74;100345.19;5020581;28;20068;-86
2021/07/30 04:26:29;;;;;;;6.43;3.03;;;;;;;13.55;79.56;100348.66;4990022;28;20052;-83
2021/07/30 04:28:56;;;;;;;5.25;3.53;;;;;;;13.57;79.59;100347.72;5043231;28;20049;-83
2021/07/30 04:31:22;;;;;;;7.28;3.13;;;;;;;13.62;79.30;100352.84;5036940;28;20508;-83
2021/07/30 04:33:50;;;;;;;6.38;3.15;;;;;;;13.68;79.19;100346.56;5004830;28;20059;-85
2021/07/30 04:36:20;;;;;;;5.45;3.20;;;;;;;13.71;78.72;100343.84;5023362;28;20052;-86
2021/07/30 04:38:47;;;;;;;4.57;2.42;;;;;;;13.75;78.54;100350.75;5010873;28;20080;-84
2021/07/30 04:41:13;;;;;;;3.80;3.50;;;;;;;13.78;78.60;100347.19;5008222;28;20044;-87
2021/07/30 04:43:40;;;;;;;6.95;2.90;;;;;;;13.81;78.36;100349.75;5035823;28;20064;-85
2021/07/30 04:46:18;;;;;;;6.05;3.50;;;;;;;13.83;78.93;100342.66;5040541;28;20079;-83
2021/07/30 04:48:46;;;;;;;4.90;2.60;;;;;;;13.88;78.45;100346.03;5006931;28;21051;-86
2021/07/30 04:51:14;;;;;;;5.00;2.83;;;;;;;13.91;78.15;100351.22;5025382;28;20041;-84
2021/07/30 04:53:49;;;;;;;6.53;2.80;;;;;;;13.97;78.11;100345.75;5030428;28;20040;-83
2021/07/30 04:56:21;;;;;;;14.15;5.43;;;;;;;14.00;77.65;100339.56;5027960;28;20455;-86
2021/07/30 04:58:48;;;;;;;11.02;2.60;;;;;;;14.05;77.34;100342.91;5012538;28;20586;-87
2021/07/30 05:01:16;;;;;;;7.53;3.58;;;;;;;14.11;77.34;100347.16;5021545;28;20052;-87
2021/07/30 05:03:44;;;;;;;11.38;3.85;;;;;;;14.15;77.17;100341.75;5024535;28;20081;-84
2021/07/30 05:06:23;;;;;;;2.85;2.28;;;;;;;14.18;77.17;100343.44;5025164;28;20057;-84
2021/07/30 05:08:50;;;;;;;4.90;2.85;;;;;;;14.23;77.14;100355.53;5026735;28;20577;-84
2021/07/30 05:11:20;;;;;;;5.43;3.90;;;;;;;14.30;76.98;100348.34;5011305;28;20041;-86
2021/07/30 05:13:46;;;;;;;10.00;2.78;;;;;;;14.35;76.76;100356.09;5024562;28;20049;-88
2021/07/30 05:16:15;;;;;;;8.15;3.20;;;;;;;14.39;76.64;100347.19;5042845;28;20041;-84
2021/07/30 05:18:42;;;;;;;5.45;2.80;;;;;;;14.46;76.80;100353.19;5008150;28;20059;-85
2021/07/30 05:21:13;;;;;;;5.40;2.67;;;;;;;14.50;76.35;100353.03;5025463;28;20085;-85
2021/07/30 05:23:40;;;;;;;4.97;2.63;;;;;;;14.57;76.12;100345.78;5045180;28;20523;-86
2021/07/30 05:26:07;;;;;;;5.70;2.70;;;;;;;14.62;75.87;100350.94;5041791;28;20094;-86
2021/07/30 05:28:34;;;;;;;6.22;2.85;;;;;;;14.71;76.22;100358.59;5025209;28;20052;-87
2021/07/30 05:31:02;;;;;;;6.85;2.72;;;;;;;14.81;75.79;100353.88;5038697;28;20044;-85
2021/07/30 05:33:30;;;;;;;7.43;3.10;;;;;;;14.87;75.70;100343.16;5028763;28;20071;-84
2021/07/30 05:35:57;;;;;;;9.57;2.53;;;;;;;14.95;75.58;100350.81;5030868;28;20511;-83
2021/07/30 05:38:24;;;;;;;11.52;3.38;;;;;;;15.02;75.21;100347.09;4978289;28;20868;-83
2021/07/30 05:40:52;;;;;;;9.77;5.15;;;;;;;15.09;74.88;100350.38;5055767;28;20056;-85
2021/07/30 05:43:18;;;;;;;5.55;2.95;;;;;;;15.12;74.54;100343.25;5034510;28;20060;-85
2021/07/30 05:45:45;;;;;;;9.23;2.83;;;;;;;15.13;74.58;100344.94;5038635;28;20824;-87
2021/07/30 05:48:12;;;;;;;5.22;3.10;;;;;;;15.15;74.52;100339.63;5038798;28;20482;-85
2021/07/30 05:50:38;;;;;;;6.32;2.75;;;;;;;15.14;74.44;100341.38;5055639;28;20044;-83
2021/07/30 05:53:15;;;;;;;4.10;2.70;;;;;;;15.16;74.45;100342.22;5028867;28;20155;-83
2021/07/30 05:55:42;;;;;;;5.97;2.25;;;;;;;15.20;74.08;100342.94;5048483;28;20049;-84
2021/07/30 05:58:10;;;;;;;9.18;2.85;;;;;;;15.26;74.22;100339.28;5034886;28;20083;-82
2021/07/30 06:00:36;;;;;;;5.13;3.10;;;;;;;15.32;73.86;100347.84;5030715;28;20048;-85
2021/07/30 06:03:03;;;;;;;7.00;3.05;;;;;;;15.36;73.67;100346.81;5043062;28;20954;-83
2021/07/30 06:05:32;;;;;;;7.53;2.97;;;;;;;15.43;73.15;100341.34;5044913;28;20040;-82
2021/07/30 06:08:03;;;;;;;4.40;2.35;;;;;;;15.48;73.16;100336.75;5054467;28;20114;-83
2021/07/30 06:10:31;;;;;;;6.32;2.70;;;;;;;15.53;73.12;100348.88;5055116;28;20135;-82
2021/07/30 06:13:04;;;;;;;5.15;2.80;;;;;;;15.60;72.97;100338.97;5053645;28;20058;-83
2021/07/30 06:15:31;;;;;;;6.43;2.47;;;;;;;15.66;72.63;100341.41;5040878;28;20082;-86
2021/07/30 06:18:05;;;;;;;7.40;2.80;;;;;;;15.74;72.05;100345.56;5039602;28;20080;-84
2021/07/30 06:20:34;;;;;;;10.88;3.78;;;;;;;15.82;71.92;100348.81;5056774;28;20032;-84
2021/07/30 06:23:05;;;;;;;8.23;2.97;;;;;;;15.88;71.55;100349.44;5032320;28;20178;-86
2021/07/30 06:25:35;;;;;;;5.97;2.85;;;;;;;16.03;70.30;100345.41;5050015;28;20048;-85
2021/07/30 06:28:03;;;;;;;8.07;3.08;;;;;;;16.17;69.44;100350.16;5048854;28;20048;-84
2021/07/30 06:30:30;;;;;;;6.15;2.67;;;;;;;16.34;68.52;100346.88;5019264;28;20044;-83
2021/07/30 06:33:07;;;;;;;6.53;2.17;;;;;;;16.50;65.57;100333.09;5051180;28;20053;-83
2021/07/30 06:35:35;;;;;;;7.40;2.55;;;;;;;16.67;64.33;100343.88;5050207;28;20059;-83
2021/07/30 06:38:03;;;;;;;5.13;2.45;;;;;;;16.86;61.26;100337.84;5047263;28;20102;-84
2021/07/30 06:40:29;;;;;;;5.53;2.15;;;;;;;17.02;61.21;100332.81;5029695;28;20041;-85
2021/07/30 06:42:57;;;;;;;5.82;2.63;;;;;;;17.20;60.88;100339.16;5060501;28;20137;-84
2021/07/30 06:45:28;;;;;;;6.75;2.58;;;;;;;17.42;58.94;100339.09;5052658;28;20632;-85
2021/07/30 06:47:55;;;;;;;5.35;2.25;;;;;;;17.62;58.15;100337.38;5042519;28;20056;-85
2021/07/30 06:50:24;;;;;;;6.13;2.38;;;;;;;17.76;57.50;100336.78;5051235;28;20704;-82
2021/07/30 06:52:54;;;;;;;4.70;2.10;;;;;;;17.89;57.41;100331.81;5051771;28;20531;-87
2021/07/30 06:55:22;;;;;;;6.20;2.47;;;;;;;17.97;57.30;100335.00;5053605;28;20064;-84
2021/07/30 06:57:55;;;;;;;2.28;1.92;;;;;;;18.02;57.45;100330.34;5060495;28;20092;-82
2021/07/30 07:00:22;;;;;;;4.60;2.50;;;;;;;18.11;57.28;100329.94;5032715;28;20090;-84
2021/07/30 07:02:51;;;;;;;7.38;3.00;;;;;;;18.12;56.83;100326.38;5049891;28;20807;-84
2021/07/30 07:05:24;;;;;;;6.43;2.25;;;;;;;18.12;56.26;100315.78;5049870;28;20479;-83
2021/07/30 07:07:51;;;;;;;4.20;2.47;;;;;;;18.12;56.84;100328.13;5051744;28;20141;-86
2021/07/30 07:10:18;;;;;;;4.28;2.38;;;;;;;18.14;56.28;100335.09;5033787;28;20167;-83
2021/07/30 07:12:45;;;;;;;4.40;2.42;;;;;;;18.22;56.96;100320.66;5052092;28;20044;-87
2021/07/30 07:15:14;;;;;;;4.38;2.00;;;;;;;18.34;56.67;100326.25;5054982;28;20053;-84
2021/07/30 07:17:43;;;;;;;4.18;2.25;;;;;;;18.50;56.06;100325.53;5058271;28;20119;-86
2021/07/30 07:20:21;;;;;;;4.53;2.33;;;;;;;18.68;55.34;100332.59;5053181;28;20093;-85
2021/07/30 07:22:48;;;;;;;4.22;1.83;;;;;;;18.92;54.25;100326.22;5054119;28;20052;-84
2021/07/30 07:25:19;;;;;;;6.68;2.83;;;;;;;19.17;53.84;100325.84;5023787;28;20050;-85
2021/07/30 07:27:49;;;;;;;6.28;2.60;;;;;;;19.35;53.55;100321.41;5036075;28;20050;-83
2021/07/30 07:30:16;;;;;;;3.08;2.50;;;;;;;19.57;51.98;100318.50;5038924;28;20069;-84
2021/07/30 07:32:43;;;;;;;6.68;2.85;;;;;;;19.62;51.71;100315.59;5042564;28;20122;-85
2021/07/30 07:35:10;;;;;;;5.82;2.30;;;;;;;19.59;51.30;100315.75;5040322;28;20820;-84
2021/07/30 07:37:41;;;;;;;5.78;2.25;;;;;;;19.72;51.44;100326.59;5039369;28;20039;-86
2021/07/30 07:40:12;;;;;;;6.20;2.17;;;;;;;19.84;50.75;100318.00;5037300;28;20047;-83
2021/07/30 07:42:41;;;;;;;9.40;2.97;;;;;;;19.71;51.18;100312.47;5022634;28;20050;-83
2021/07/30 07:45:23;;;;;;;3.78;2.28;;;;;;;19.69;51.20;100319.66;5021262;28;20047;-85
2021/07/30 07:47:49;;;;;;;3.00;1.77;;;;;;;19.71;51.19;100311.59;5023352;28;20061;-88
2021/07/30 07:50:17;;;;;;;5.32;2.28;;;;;;;19.75;50.71;100316.69;5035883;28;20047;-82
2021/07/30 07:55:30;;;;;;;4.68;2.13;;;;;;;20.77;48.54;100308.53;5039184;28;20051;-85
2021/07/30 07:58:02;;;;;;;6.60;2.03;;;;;;;21.26;47.03;100301.28;5034912;28;20379;-85
2021/07/30 08:00:29;;;;;;;5.50;2.42;;;;;;;21.60;45.61;100300.16;5033686;28;20790;-88
2021/07/30 08:02:56;;;;;;;7.18;2.33;;;;;;;22.12;44.47;100292.53;5014008;28;20058;-87
2021/07/30 08:05:24;;;;;;;2.78;2.13;;;;;;;22.57;43.29;100297.72;5011633;28;20058;-85
2021/07/30 08:07:51;;;;;;;4.15;2.10;;;;;;;22.60;42.78;100297.50;5012405;28;20058;-85
2021/07/30 08:10:34;;;;;;;5.57;2.55;;;;;;;22.31;44.00;100298.41;5020190;28;20047;-88
2021/07/30 08:13:03;;;;;;;5.55;2.20;;;;;;;22.32;43.84;100291.28;5034571;28;20137;-83
2021/07/30 08:15:41;;;;;;;4.35;1.80;;;;;;;22.27;44.12;100299.56;5032525;28;20048;-83
2021/07/30 08:18:08;;;;;;;10.20;2.92;;;;;;;22.44;44.11;100308.31;5015245;28;20051;-82
2021/07/30 08:20:38;;;;;;;6.57;2.47;;;;;;;22.85;42.82;100311.91;5011897;28;20097;-83
2021/07/30 08:23:05;;;;;;;4.25;2.45;;;;;;;22.92;42.40;100310.56;5041157;28;20057;-88
2021/07/30 08:25:33;;;;;;;6.25;2.03;;;;;;;22.72;42.52;100310.06;5052531;28;20122;-83
2021/07/30 08:28:09;;;;;;;4.35;2.00;;;;;;;23.09;42.43;100309.44;5051143;28;20045;-84
2021/07/30 08:30:36;;;;;;;4.90;2.53;;;;;;;23.58;41.21;100308.78;5034697;28;20036;-84
2021/07/30 08:33:03;;;;;;;4.75;2.10;;;;;;;23.85;40.66;100299.78;5033089;28;20072;-84
2021/07/30 08:35:30;;;;;;;5.15;2.75;;;;;;;24.18;40.72;100309.06;5048601;28;20052;-83
2021/07/30 08:37:57;;;;;;;4.05;2.03;;;;;;;24.56;39.90;100302.78;5051394;28;20043;-84
2021/07/30 08:40:42;;;;;;;4.35;2.10;;;;;;;24.81;39.00;100300.13;5048299;28;20040;-84
2021/07/30 08:43:17;;;;;;;8.07;2.80;;;;;;;24.55;38.68;100287.69;5053215;28;20048;-84
2021/07/30 08:45:51;;;;;;;3.38;1.60;;;;;;;24.91;38.96;100296.66;5045342;28;20052;-85
2021/07/30 08:48:25;;;;;;;3.13;1.80;;;;;;;25.78;38.35;100287.38;5037779;28;20076;-84
2021/07/30 08:50:53;;;;;;;10.07;2.58;;;;;;;26.60;36.93;100288.06;5036274;28;20048;-84
2021/07/30 08:53:28;;;;;;;7.70;1.90;;;;;;;26.61;35.68;100289.75;5034577;28;20044;-83
2021/07/30 08:56:06;;;;;;;3.45;2.50;;;;;;;27.06;35.30;100290.47;5045389;28;20115;-83
2021/07/30 08:58:34;;;;;;;4.85;2.08;;;;;;;27.44;33.77;100276.59;5046707;28;20131;-85
2021/07/30 09:01:04;;;;;;;3.72;2.40;;;;;;;27.13;34.40;100282.75;5031625;28;20041;-84
2021/07/30 09:03:43;;;;;;;4.07;1.75;;;;;;;26.99;34.46;100280.38;5062033;28;20440;-85
2021/07/30 09:09:12;;;;;;;3.10;1.70;;;;;;;26.66;35.15;100292.91;5044142;28;20049;-83
2021/07/30 09:11:41;;;;;;;5.50;2.25;;;;;;;26.94;34.96;100288.81;5029275;28;20093;-84
2021/07/30 09:14:13;;;;;;;2.88;1.67;;;;;;;27.64;34.02;100283.81;5061210;28;20062;-85
2021/07/30 09:16:55;;;;;;;6.68;2.30;;;;;;;28.00;31.81;100275.31;5031044;28;20041;-87
2021/07/30 09:19:23;;;;;;;5.65;2.53;;;;;;;28.14;32.66;100274.13;5030716;28;20047;-84
2021/07/30 09:22:11;;;;;;;4.55;2.15;;;;;;;27.85;31.90;100275.69;5025748;28;20052;-87
2021/07/30 09:24:45;;;;;;;4.32;2.17;;;;;;;27.24;33.31;100271.91;5031470;28;20115;-85
2021/07/30 09:27:31;;;;;;;3.83;1.90;;;;;;;26.77;34.08;100267.91;5029867;28;20095;-86
2021/07/30 09:30:14;;;;;;;3.30;1.27;;;;;;;26.69;33.37;100263.16;5047688;28;20044;-87
2021/07/30 09:32:41;;;;;;;;;;;;;;;26.15;34.46;100260.34;5032341;28;20072;-87
2021/07/30 09:35:13;;;;;;;4.45;2.05;;;;;;;25.83;35.00;100265.59;5046925;28;19928;-84
2021/07/30 09:37:39;;;;;;;2.15;1.52;;;;;;;25.58;35.32;100268.38;5064590;28;20059;-83
2021/07/30 09:40:23;;;;;;;4.72;1.95;;;;;;;25.71;35.01;100254.00;5031799;28;20044;-82
2021/07/30 09:42:50;;;;;;;4.45;1.77;;;;;;;25.35;35.71;100243.38;5054065;28;20044;-86
2021/07/30 09:45:19;;;;;;;1.98;1.60;;;;;;;25.55;35.35;100249.00;5032325;28;20052;-85
2021/07/30 09:47:51;;;;;;;5.95;1.88;;;;;;;25.84;34.65;100245.81;5049099;28;20140;-87
2021/07/30 09:50:18;;;;;;;5.30;2.10;;;;;;;25.66;35.13;100251.69;5028204;28;20047;-86
2021/07/30 09:52:52;;;;;;;5.15;1.63;;;;;;;25.67;34.83;100242.69;5030263;28;20521;-87
2021/07/30 09:55:24;;;;;;;3.33;1.92;;;;;;;26.05;34.88;100236.09;5045705;28;20053;-84
2021/07/30 09:58:01;;;;;;;2.83;1.92;;;;;;;26.95;33.85;100244.00;5054291;28;20070;-86
2021/07/30 10:00:33;;;;;;;10.38;2.08;;;;;;;27.31;33.42;100239.16;5045928;28;20068;-86
2021/07/30 10:03:04;;;;;;;8.27;1.90;;;;;;;27.44;33.24;100222.84;5030821;28;20102;-84
2021/07/30 10:05:32;;;;;;;3.90;1.73;;;;;;;26.88;33.64;100230.25;5047578;28;20048;-86
2021/07/30 10:08:01;;;;;;;3.90;1.83;;;;;;;26.34;34.62;100227.50;5044036;28;20052;-85
2021/07/30 10:10:40;;;;;;;2.38;1.80;;;;;;;25.86;35.20;100211.72;5045723;28;20116;-82
2021/07/30 10:13:13;;;;;;;2.60;1.38;;;;;;;25.92;35.00;100203.19;5030490;28;20049;-84
2021/07/30 10:15:43;;;;;;;5.55;1.52;;;;;;;25.43;35.93;100206.13;5047041;28;20048;-85
2021/07/30 10:18:20;;;;;;;3.25;1.67;;;;;;;26.02;35.13;100209.50;5051144;28;20059;-85
2021/07/30 10:21:08;;;;;;;3.35;1.45;;;;;;;27.33;33.34;100210.31;5049985;28;20639;-85
2021/07/30 10:23:38;;;;;;;2.20;1.38;;;;;;;28.40;31.95;100207.16;5046807;28;20659;-84
2021/07/30 10:26:07;;;;;;;3.50;1.95;;;;;;;29.02;30.50;100205.03;5041218;28;20987;-87
2021/07/30 10:28:35;;;;;;;3.33;1.55;;;;;;;29.81;29.26;100185.91;5053218;28;20063;-86
2021/07/30 10:31:12;;;;;;;1.45;1.20;;;;;;;30.48;28.44;100182.94;5036027;28;20450;-85
2021/07/30 10:33:52;;;;;;;1.67;1.35;;;;;;;31.25;27.17;100185.91;5037892;28;20052;-82
2021/07/30 10:36:36;;;;;;;4.55;1.30;;;;;;;29.72;28.80;100195.75;5049309;28;20048;-83
2021/07/30 10:39:12;;;;;;;3.53;1.40;;;;;;;29.16;29.80;100187.53;5049418;28;20052;-88
2021/07/30 10:42:28;;;;;;;2.72;1.20;;;;;;;29.05;29.67;100180.47;5049794;28;21702;-88
2021/07/30 10:45:26;;;;;;;1.95;1.38;;;;;;;28.09;31.14;100171.44;5013675;28;20059;-84
2021/07/30 10:48:14;;;;;;;2.08;1.38;;;;;;;28.20;30.91;100179.38;4993189;28;20083;-84
2021/07/30 10:50:59;;;;;;;2.65;1.02;;;;;;;29.58;29.26;100171.97;5043242;28;20044;-87
2021/07/30 10:53:38;;;;;;;2.38;1.20;;;;;;;30.45;27.68;100172.44;5052685;28;20045;-84
2021/07/30 10:56:31;;;;;;;4.97;1.38;;;;;;;30.89;27.30;100167.06;5057372;28;20053;-86
2021/07/30 10:59:01;;;;;;;3.13;1.30;;;;;;;30.03;27.96;100163.91;5049432;28;20152;-83
2021/07/30 11:01:39;;;;;;;3.88;1.00;;;;;;;30.49;27.44;100166.59;5058978;28;20047;-86
2021/07/30 11:04:06;;;;;;;4.10;1.30;;;;;;;30.30;28.09;100164.88;5048628;28;20056;-84
2021/07/30 11:06:53;;;;;;;3.35;1.15;;;;;;;28.91;29.18;100167.47;5045666;28;20068;-87
2021/07/30 11:09:25;;;;;;;9.38;1.40;;;;;;;28.38;30.60;100163.38;5030861;28;20045;-86
2021/07/30 11:12:12;;;;;;;2.75;1.00;;;;;;;28.23;30.72;100165.66;5027620;28;20310;-87
2021/07/30 11:14:48;;;;;;;4.45;1.08;;;;;;;28.89;29.83;100161.41;5042603;28;20055;-86
2021/07/30 11:17:15;;;;;;;1.95;1.52;;;;;;;29.74;28.67;100144.31;5023927;28;20112;-84
2021/07/30 11:19:51;;;;;;;2.08;1.10;;;;;;;31.08;26.51;100155.25;5046041;28;20076;-85
2021/07/30 11:22:26;;;;;;;2.83;1.10;;;;;;;31.55;25.86;100144.97;5024683;28;20045;-85
2021/07/30 11:24:55;;;;;;;5.93;1.40;;;;;;;32.11;25.80;100140.78;5030085;28;20098;-85
2021/07/30 11:27:24;;;;;;;1.42;0.93;;;;;;;31.17;26.12;100148.88;5045044;28;20046;-84
2021/07/30 11:29:54;;;;;;;4.15;1.20;;;;;;;30.93;26.81;100143.28;5028933;28;20104;-83
2021/07/30 11:32:23;;;;;;;1.42;1.25;;;;;;;31.61;26.08;100144.31;5047138;28;20040;-88
2021/07/30 11:35:33;;;;;;;4.50;0.93;;;;;;;31.06;26.44;100146.44;5043731;28;20539;-83
2021/07/30 11:38:01;;;;;;;1.98;1.13;;;;;;;30.14;27.64;100138.56;5027993;28;20052;-85
2021/07/30 11:40:28;;;;;;;3.80;1.05;;;;;;;29.15;29.27;100129.25;5044024;28;20040;-86
2021/07/30 11:43:07;;;;;;;1.60;1.00;;;;;;;30.21;27.75;100141.50;5054923;28;20056;-83
2021/07/30 11:45:38;;;;;;;4.28;0.90;;;;;;;31.97;25.45;100136.84;5027221;28;20051;-88
2021/07/30 11:48:11;;;;;;;2.80;0.88;;;;;;;33.15;23.94;100132.97;5041469;28;20052;-84